sensor_id;sensor_type;location;lat;lon;timestamp;temperature;humidity
18365;DHT22;9309;52.126;11.616;2023-03-01T00:00:44;-1.20;74.20
18365;DHT22;9309;52.126;11.616;2023-03-01T00:03:12;-1.30;74.40
18365;DHT22;9309;52.126;11.616;2023-03-01T00:05:44;-1.30;74.20
18365;DHT22;9309;52.126;11.616;2023-03-01T00:08:11;-1.40;74.40
18365;DHT22;9309;52.126;11.616;2023-03-01T00:10:37;-1.40;75.00
18365;DHT22;9309;52.126;11.616;2023-03-01T00:13:04;-1.50;75.50
18365;DHT22;9309;52.126;11.616;2023-03-01T00:15:32;-1.50;75.90
18365;DHT22;9309;52.126;11.616;2023-03-01T00:18:00;-1.50;75.30
18365;DHT22;9309;52.126;11.616;2023-03-01T00:20:26;-1.40;75.10
18365;DHT22;9309;52.126;11.616;2023-03-01T00:22:53;-1.50;75.50
18365;DHT22;9309;52.126;11.616;2023-03-01T00:25:20;-1.50;75.50
18365;DHT22;9309;52.126;11.616;2023-03-01T00:27:46;-1.50;75.50
18365;DHT22;9309;52.126;11.616;2023-03-01T00:30:14;-1.50;75.30
18365;DHT22;9309;52.126;11.616;2023-03-01T00:32:42;-1.50;75.40
18365;DHT22;9309;52.126;11.616;2023-03-01T00:35:09;-1.30;74.80
18365;DHT22;9309;52.126;11.616;2023-03-01T00:37:36;-1.40;74.90
18365;DHT22;9309;52.126;11.616;2023-03-01T00:40:03;-1.50;75.20
18365;DHT22;9309;52.126;11.616;2023-03-01T00:42:31;-1.60;75.30
18365;DHT22;9309;52.126;11.616;2023-03-01T00:44:58;-1.60;75.50
18365;DHT22;9309;52.126;11.616;2023-03-01T00:47:25;-1.50;74.50
18365;DHT22;9309;52.126;11.616;2023-03-01T00:49:53;-1.70;75.10
18365;DHT22;9309;52.126;11.616;2023-03-01T00:52:21;-1.80;76.20
18365;DHT22;9309;52.126;11.616;2023-03-01T00:54:47;-1.90;76.80
18365;DHT22;9309;52.126;11.616;2023-03-01T00:57:14;-1.90;77.50
18365;DHT22;9309;52.126;11.616;2023-03-01T00:59:40;-1.80;76.80
18365;DHT22;9309;52.126;11.616;2023-03-01T01:02:07;-1.80;76.30
18365;DHT22;9309;52.126;11.616;2023-03-01T01:04:34;-1.80;76.30
18365;DHT22;9309;52.126;11.616;2023-03-01T01:07:02;-2.00;76.70
18365;DHT22;9309;52.126;11.616;2023-03-01T01:09:28;-2.00;76.90
18365;DHT22;9309;52.126;11.616;2023-03-01T01:11:55;-2.10;77.80
18365;DHT22;9309;52.126;11.616;2023-03-01T01:14:21;-2.00;77.20
18365;DHT22;9309;52.126;11.616;2023-03-01T01:16:48;-2.00;76.80
18365;DHT22;9309;52.126;11.616;2023-03-01T01:19:15;-2.00;76.30
18365;DHT22;9309;52.126;11.616;2023-03-01T01:21:41;-2.30;77.60
18365;DHT22;9309;52.126;11.616;2023-03-01T01:24:10;-2.30;77.50
18365;DHT22;9309;52.126;11.616;2023-03-01T01:26:37;-2.30;77.50
18365;DHT22;9309;52.126;11.616;2023-03-01T01:29:04;-2.20;76.80
18365;DHT22;9309;52.126;11.616;2023-03-01T01:31:32;-2.10;76.40
18365;DHT22;9309;52.126;11.616;2023-03-01T01:34:01;-2.20;78.10
18365;DHT22;9309;52.126;11.616;2023-03-01T01:36:28;-2.10;78.30
18365;DHT22;9309;52.126;11.616;2023-03-01T01:38:55;-2.20;77.50
18365;DHT22;9309;52.126;11.616;2023-03-01T01:41:25;-2.40;78.50
18365;DHT22;9309;52.126;11.616;2023-03-01T01:47:00;-2.50;78.10
18365;DHT22;9309;52.126;11.616;2023-03-01T01:49:32;-2.40;78.40
18365;DHT22;9309;52.126;11.616;2023-03-01T01:52:07;-2.20;77.70
18365;DHT22;9309;52.126;11.616;2023-03-01T01:54:41;-2.20;77.90
18365;DHT22;9309;52.126;11.616;2023-03-01T01:57:12;-2.10;77.70
18365;DHT22;9309;52.126;11.616;2023-03-01T01:59:43;-2.20;77.50
18365;DHT22;9309;52.126;11.616;2023-03-01T02:02:12;-2.30;77.80
18365;DHT22;9309;52.126;11.616;2023-03-01T02:04:39;-2.40;78.80
18365;DHT22;9309;52.126;11.616;2023-03-01T02:07:09;-2.30;78.50
18365;DHT22;9309;52.126;11.616;2023-03-01T02:09:37;-2.20;78.00
18365;DHT22;9309;52.126;11.616;2023-03-01T02:12:04;-2.20;77.80
18365;DHT22;9309;52.126;11.616;2023-03-01T02:14:34;-2.30;78.10
18365;DHT22;9309;52.126;11.616;2023-03-01T02:17:01;-2.30;78.20
18365;DHT22;9309;52.126;11.616;2023-03-01T02:19:40;-2.20;78.00
18365;DHT22;9309;52.126;11.616;2023-03-01T02:22:15;-2.40;77.90
18365;DHT22;9309;52.126;11.616;2023-03-01T02:24:56;-2.40;78.70
18365;DHT22;9309;52.126;11.616;2023-03-01T02:27:33;-2.20;77.60
18365;DHT22;9309;52.126;11.616;2023-03-01T02:30:05;-2.50;78.00
18365;DHT22;9309;52.126;11.616;2023-03-01T02:32:33;-2.80;79.30
18365;DHT22;9309;52.126;11.616;2023-03-01T02:34:59;-2.70;79.30
18365;DHT22;9309;52.126;11.616;2023-03-01T02:37:26;-2.50;78.80
18365;DHT22;9309;52.126;11.616;2023-03-01T02:39:59;-2.50;78.20
18365;DHT22;9309;52.126;11.616;2023-03-01T02:42:30;-2.40;77.80
18365;DHT22;9309;52.126;11.616;2023-03-01T02:44:59;-2.30;77.40
18365;DHT22;9309;52.126;11.616;2023-03-01T02:47:27;-2.40;78.20
18365;DHT22;9309;52.126;11.616;2023-03-01T02:49:54;-2.60;78.40
18365;DHT22;9309;52.126;11.616;2023-03-01T02:52:30;-2.60;79.00
18365;DHT22;9309;52.126;11.616;2023-03-01T02:55:03;-2.70;79.30
18365;DHT22;9309;52.126;11.616;2023-03-01T02:57:32;-2.70;80.00
18365;DHT22;9309;52.126;11.616;2023-03-01T03:00:03;-2.60;79.40
18365;DHT22;9309;52.126;11.616;2023-03-01T03:02:35;-2.40;78.70
18365;DHT22;9309;52.126;11.616;2023-03-01T03:05:08;-2.40;78.30
18365;DHT22;9309;52.126;11.616;2023-03-01T03:07:38;-2.40;78.10
18365;DHT22;9309;52.126;11.616;2023-03-01T03:10:08;-2.50;78.40
18365;DHT22;9309;52.126;11.616;2023-03-01T03:12:37;-2.40;78.50
18365;DHT22;9309;52.126;11.616;2023-03-01T03:15:05;-2.50;78.50
18365;DHT22;9309;52.126;11.616;2023-03-01T03:17:35;-2.60;79.00
18365;DHT22;9309;52.126;11.616;2023-03-01T03:20:03;-2.60;78.90
18365;DHT22;9309;52.126;11.616;2023-03-01T03:22:30;-2.60;79.40
18365;DHT22;9309;52.126;11.616;2023-03-01T03:24:57;-2.70;79.60
18365;DHT22;9309;52.126;11.616;2023-03-01T03:27:23;-2.80;79.20
18365;DHT22;9309;52.126;11.616;2023-03-01T03:29:50;-2.90;79.50
18365;DHT22;9309;52.126;11.616;2023-03-01T03:32:17;-2.80;79.60
18365;DHT22;9309;52.126;11.616;2023-03-01T03:34:45;-2.90;79.30
18365;DHT22;9309;52.126;11.616;2023-03-01T03:37:11;-2.80;79.20
18365;DHT22;9309;52.126;11.616;2023-03-01T03:39:52;-2.90;79.90
18365;DHT22;9309;52.126;11.616;2023-03-01T03:42:20;-2.80;79.10
18365;DHT22;9309;52.126;11.616;2023-03-01T03:44:47;-3.00;80.40
18365;DHT22;9309;52.126;11.616;2023-03-01T03:47:14;-3.10;80.20
18365;DHT22;9309;52.126;11.616;2023-03-01T03:49:40;-3.10;80.20
18365;DHT22;9309;52.126;11.616;2023-03-01T03:52:08;-3.10;80.20
18365;DHT22;9309;52.126;11.616;2023-03-01T03:54:39;-2.90;80.00
18365;DHT22;9309;52.126;11.616;2023-03-01T03:57:05;-2.80;79.30
18365;DHT22;9309;52.126;11.616;2023-03-01T03:59:32;-3.00;79.60
18365;DHT22;9309;52.126;11.616;2023-03-01T04:01:59;-3.10;81.00
18365;DHT22;9309;52.126;11.616;2023-03-01T04:04:25;-3.00;80.20
18365;DHT22;9309;52.126;11.616;2023-03-01T04:06:52;-3.20;80.90
18365;DHT22;9309;52.126;11.616;2023-03-01T04:09:20;-3.00;80.50
18365;DHT22;9309;52.126;11.616;2023-03-01T04:11:47;-2.90;80.40
18365;DHT22;9309;52.126;11.616;2023-03-01T04:14:13;-3.10;81.30
18365;DHT22;9309;52.126;11.616;2023-03-01T04:16:40;-2.90;81.10
18365;DHT22;9309;52.126;11.616;2023-03-01T04:19:07;-2.90;80.30
18365;DHT22;9309;52.126;11.616;2023-03-01T04:21:34;-3.00;79.80
18365;DHT22;9309;52.126;11.616;2023-03-01T04:24:02;-2.90;80.10
18365;DHT22;9309;52.126;11.616;2023-03-01T04:26:30;-2.80;78.80
18365;DHT22;9309;52.126;11.616;2023-03-01T04:28:57;-2.80;78.80
18365;DHT22;9309;52.126;11.616;2023-03-01T04:31:23;-3.00;79.20
18365;DHT22;9309;52.126;11.616;2023-03-01T04:33:52;-3.00;80.20
18365;DHT22;9309;52.126;11.616;2023-03-01T04:36:20;-3.00;80.40
18365;DHT22;9309;52.126;11.616;2023-03-01T04:38:47;-3.10;80.90
18365;DHT22;9309;52.126;11.616;2023-03-01T04:41:15;-3.00;80.30
18365;DHT22;9309;52.126;11.616;2023-03-01T04:43:44;-3.00;80.40
18365;DHT22;9309;52.126;11.616;2023-03-01T04:46:13;-3.00;80.50
18365;DHT22;9309;52.126;11.616;2023-03-01T04:48:41;-3.00;80.90
18365;DHT22;9309;52.126;11.616;2023-03-01T04:51:08;-3.00;80.60
18365;DHT22;9309;52.126;11.616;2023-03-01T04:53:35;-3.00;80.00
18365;DHT22;9309;52.126;11.616;2023-03-01T04:56:02;-3.10;80.50
18365;DHT22;9309;52.126;11.616;2023-03-01T04:58:29;-3.10;81.20
18365;DHT22;9309;52.126;11.616;2023-03-01T05:00:57;-3.00;80.70
18365;DHT22;9309;52.126;11.616;2023-03-01T05:03:24;-2.90;80.10
18365;DHT22;9309;52.126;11.616;2023-03-01T05:05:51;-3.00;80.50
18365;DHT22;9309;52.126;11.616;2023-03-01T05:08:19;-3.00;80.90
18365;DHT22;9309;52.126;11.616;2023-03-01T05:10:48;-3.00;80.70
18365;DHT22;9309;52.126;11.616;2023-03-01T05:13:16;-3.00;81.00
18365;DHT22;9309;52.126;11.616;2023-03-01T05:15:47;-3.10;80.50
18365;DHT22;9309;52.126;11.616;2023-03-01T05:18:16;-3.10;79.60
18365;DHT22;9309;52.126;11.616;2023-03-01T05:20:42;-3.20;80.60
18365;DHT22;9309;52.126;11.616;2023-03-01T05:23:10;-3.10;80.60
18365;DHT22;9309;52.126;11.616;2023-03-01T05:25:37;-3.20;80.80
18365;DHT22;9309;52.126;11.616;2023-03-01T05:28:06;-3.30;81.50
18365;DHT22;9309;52.126;11.616;2023-03-01T05:30:35;-3.40;82.30
18365;DHT22;9309;52.126;11.616;2023-03-01T05:33:05;-3.30;81.90
18365;DHT22;9309;52.126;11.616;2023-03-01T05:35:37;-3.30;81.40
18365;DHT22;9309;52.126;11.616;2023-03-01T05:38:03;-3.40;82.00
18365;DHT22;9309;52.126;11.616;2023-03-01T05:40:32;-3.30;81.40
18365;DHT22;9309;52.126;11.616;2023-03-01T05:42:59;-3.30;81.70
18365;DHT22;9309;52.126;11.616;2023-03-01T05:45:27;-3.30;81.80
18365;DHT22;9309;52.126;11.616;2023-03-01T05:47:55;-3.20;81.30
18365;DHT22;9309;52.126;11.616;2023-03-01T05:50:24;-3.40;82.10
18365;DHT22;9309;52.126;11.616;2023-03-01T05:52:57;-3.30;82.20
18365;DHT22;9309;52.126;11.616;2023-03-01T05:55:24;-3.20;81.20
18365;DHT22;9309;52.126;11.616;2023-03-01T05:57:51;-3.30;80.70
18365;DHT22;9309;52.126;11.616;2023-03-01T06:00:20;-3.60;82.30
18365;DHT22;9309;52.126;11.616;2023-03-01T06:02:48;-3.70;83.10
18365;DHT22;9309;52.126;11.616;2023-03-01T06:05:15;-3.80;83.50
18365;DHT22;9309;52.126;11.616;2023-03-01T06:07:42;-4.00;84.20
18365;DHT22;9309;52.126;11.616;2023-03-01T06:10:12;-4.10;84.70
18365;DHT22;9309;52.126;11.616;2023-03-01T06:12:40;-4.20;85.00
18365;DHT22;9309;52.126;11.616;2023-03-01T06:15:08;-4.10;84.80
18365;DHT22;9309;52.126;11.616;2023-03-01T06:17:36;-3.70;83.50
18365;DHT22;9309;52.126;11.616;2023-03-01T06:20:04;-3.70;82.30
18365;DHT22;9309;52.126;11.616;2023-03-01T06:22:31;-3.90;83.90
18365;DHT22;9309;52.126;11.616;2023-03-01T06:24:58;-3.90;83.70
18365;DHT22;9309;52.126;11.616;2023-03-01T06:27:26;-4.00;84.50
18365;DHT22;9309;52.126;11.616;2023-03-01T06:29:53;-4.10;85.00
18365;DHT22;9309;52.126;11.616;2023-03-01T06:32:20;-4.10;85.40
18365;DHT22;9309;52.126;11.616;2023-03-01T06:34:46;-4.10;85.50
18365;DHT22;9309;52.126;11.616;2023-03-01T06:37:13;-4.00;85.10
18365;DHT22;9309;52.126;11.616;2023-03-01T06:39:40;-3.70;84.90
18365;DHT22;9309;52.126;11.616;2023-03-01T06:42:07;-3.80;83.90
18365;DHT22;9309;52.126;11.616;2023-03-01T06:44:37;-3.80;84.10
18365;DHT22;9309;52.126;11.616;2023-03-01T06:47:04;-3.80;84.10
18365;DHT22;9309;52.126;11.616;2023-03-01T06:49:30;-3.70;83.80
18365;DHT22;9309;52.126;11.616;2023-03-01T06:51:57;-3.60;83.20
18365;DHT22;9309;52.126;11.616;2023-03-01T06:54:24;-3.20;82.70
18365;DHT22;9309;52.126;11.616;2023-03-01T06:56:51;-2.80;80.80
18365;DHT22;9309;52.126;11.616;2023-03-01T06:59:18;-2.60;79.70
18365;DHT22;9309;52.126;11.616;2023-03-01T07:01:45;-2.50;79.10
18365;DHT22;9309;52.126;11.616;2023-03-01T07:04:13;-2.70;79.60
18365;DHT22;9309;52.126;11.616;2023-03-01T07:06:39;-2.70;80.70
18365;DHT22;9309;52.126;11.616;2023-03-01T07:09:06;-2.60;79.70
18365;DHT22;9309;52.126;11.616;2023-03-01T07:11:33;-2.40;79.60
18365;DHT22;9309;52.126;11.616;2023-03-01T07:13:59;-2.20;79.20
18365;DHT22;9309;52.126;11.616;2023-03-01T07:16:26;-2.10;78.70
18365;DHT22;9309;52.126;11.616;2023-03-01T07:18:54;-1.90;78.40
18365;DHT22;9309;52.126;11.616;2023-03-01T07:21:21;-1.80;77.70
18365;DHT22;9309;52.126;11.616;2023-03-01T07:23:48;-1.70;76.40
18365;DHT22;9309;52.126;11.616;2023-03-01T07:26:15;-1.60;76.10
18365;DHT22;9309;52.126;11.616;2023-03-01T07:28:41;-1.50;75.90
18365;DHT22;9309;52.126;11.616;2023-03-01T07:31:08;-1.40;75.20
18365;DHT22;9309;52.126;11.616;2023-03-01T07:33:35;-1.30;74.80
18365;DHT22;9309;52.126;11.616;2023-03-01T07:36:04;-1.20;75.00
18365;DHT22;9309;52.126;11.616;2023-03-01T07:38:31;-1.10;74.40
18365;DHT22;9309;52.126;11.616;2023-03-01T07:40:59;-0.90;73.80
18365;DHT22;9309;52.126;11.616;2023-03-01T07:43:26;-0.90;73.10
18365;DHT22;9309;52.126;11.616;2023-03-01T07:45:52;-0.90;72.90
18365;DHT22;9309;52.126;11.616;2023-03-01T07:48:19;-0.80;72.70
18365;DHT22;9309;52.126;11.616;2023-03-01T07:50:46;-0.70;72.40
18365;DHT22;9309;52.126;11.616;2023-03-01T07:53:14;-0.80;72.40
18365;DHT22;9309;52.126;11.616;2023-03-01T07:55:40;-0.70;72.70
18365;DHT22;9309;52.126;11.616;2023-03-01T07:58:07;-0.90;73.60
18365;DHT22;9309;52.126;11.616;2023-03-01T08:00:34;-0.80;74.20
18365;DHT22;9309;52.126;11.616;2023-03-01T08:03:01;-0.60;73.60
18365;DHT22;9309;52.126;11.616;2023-03-01T08:05:28;-0.50;72.70
18365;DHT22;9309;52.126;11.616;2023-03-01T08:07:55;-0.30;72.60
18365;DHT22;9309;52.126;11.616;2023-03-01T08:10:23;-0.20;69.90
18365;DHT22;9309;52.126;11.616;2023-03-01T08:12:51;-0.20;69.40
18365;DHT22;9309;52.126;11.616;2023-03-01T08:15:18;-0.10;69.50
18365;DHT22;9309;52.126;11.616;2023-03-01T08:17:45;0.20;68.50
18365;DHT22;9309;52.126;11.616;2023-03-01T08:20:11;0.50;67.30
18365;DHT22;9309;52.126;11.616;2023-03-01T08:22:39;0.80;65.70
18365;DHT22;9309;52.126;11.616;2023-03-01T08:25:05;1.10;65.50
18365;DHT22;9309;52.126;11.616;2023-03-01T08:27:33;1.50;64.80
18365;DHT22;9309;52.126;11.616;2023-03-01T08:30:00;2.00;62.50
18365;DHT22;9309;52.126;11.616;2023-03-01T08:32:27;3.50;58.40
18365;DHT22;9309;52.126;11.616;2023-03-01T08:34:54;5.10;52.90
18365;DHT22;9309;52.126;11.616;2023-03-01T08:37:20;6.20;49.20
18365;DHT22;9309;52.126;11.616;2023-03-01T08:39:47;7.70;47.60
18365;DHT22;9309;52.126;11.616;2023-03-01T08:42:14;9.00;43.50
18365;DHT22;9309;52.126;11.616;2023-03-01T08:44:41;9.70;39.80
18365;DHT22;9309;52.126;11.616;2023-03-01T08:47:08;9.70;39.60
18365;DHT22;9309;52.126;11.616;2023-03-01T08:49:35;10.70;38.00
18365;DHT22;9309;52.126;11.616;2023-03-01T08:52:02;10.90;37.10
18365;DHT22;9309;52.126;11.616;2023-03-01T08:54:29;11.60;35.90
18365;DHT22;9309;52.126;11.616;2023-03-01T08:56:55;12.30;34.80
18365;DHT22;9309;52.126;11.616;2023-03-01T08:59:25;12.90;34.00
18365;DHT22;9309;52.126;11.616;2023-03-01T09:01:54;12.00;33.70
18365;DHT22;9309;52.126;11.616;2023-03-01T09:04:20;10.60;36.00
18365;DHT22;9309;52.126;11.616;2023-03-01T09:06:47;10.70;36.60
18365;DHT22;9309;52.126;11.616;2023-03-01T09:09:15;11.00;36.20
18365;DHT22;9309;52.126;11.616;2023-03-01T09:11:43;11.30;35.40
18365;DHT22;9309;52.126;11.616;2023-03-01T09:14:11;11.00;35.10
18365;DHT22;9309;52.126;11.616;2023-03-01T09:16:38;9.70;37.00
18365;DHT22;9309;52.126;11.616;2023-03-01T09:19:06;9.10;38.90
18365;DHT22;9309;52.126;11.616;2023-03-01T09:21:33;9.70;38.10
18365;DHT22;9309;52.126;11.616;2023-03-01T09:24:00;10.70;36.60
18365;DHT22;9309;52.126;11.616;2023-03-01T09:26:30;11.90;34.40
18365;DHT22;9309;52.126;11.616;2023-03-01T09:28:59;12.90;33.10
18365;DHT22;9309;52.126;11.616;2023-03-01T09:31:29;12.90;32.60
18365;DHT22;9309;52.126;11.616;2023-03-01T09:33:55;10.60;34.30
18365;DHT22;9309;52.126;11.616;2023-03-01T09:36:24;8.90;37.50
18365;DHT22;9309;52.126;11.616;2023-03-01T09:38:51;7.10;41.50
18365;DHT22;9309;52.126;11.616;2023-03-01T09:41:31;6.80;42.80
18365;DHT22;9309;52.126;11.616;2023-03-01T09:44:06;6.60;43.80
18365;DHT22;9309;52.126;11.616;2023-03-01T09:46:41;6.10;44.60
18365;DHT22;9309;52.126;11.616;2023-03-01T09:49:12;6.90;43.70
18365;DHT22;9309;52.126;11.616;2023-03-01T09:51:53;6.10;44.80
18365;DHT22;9309;52.126;11.616;2023-03-01T09:54:20;5.30;47.10
18365;DHT22;9309;52.126;11.616;2023-03-01T09:57:05;6.40;45.70
18365;DHT22;9309;52.126;11.616;2023-03-01T09:59:39;8.50;40.60
18365;DHT22;9309;52.126;11.616;2023-03-01T10:02:21;9.80;38.60
18365;DHT22;9309;52.126;11.616;2023-03-01T10:04:51;9.60;36.60
18365;DHT22;9309;52.126;11.616;2023-03-01T10:07:28;10.30;36.30
18365;DHT22;9309;52.126;11.616;2023-03-01T10:09:59;12.80;32.90
18365;DHT22;9309;52.126;11.616;2023-03-01T10:12:35;13.30;31.60
18365;DHT22;9309;52.126;11.616;2023-03-01T10:15:06;14.20;30.80
18365;DHT22;9309;52.126;11.616;2023-03-01T10:17:37;14.80;29.50
18365;DHT22;9309;52.126;11.616;2023-03-01T10:20:17;15.90;28.20
18365;DHT22;9309;52.126;11.616;2023-03-01T10:22:45;16.30;27.20
18365;DHT22;9309;52.126;11.616;2023-03-01T10:25:17;14.10;29.20
18365;DHT22;9309;52.126;11.616;2023-03-01T10:27:51;12.90;30.80
18365;DHT22;9309;52.126;11.616;2023-03-01T10:30:21;14.10;29.70
18365;DHT22;9309;52.126;11.616;2023-03-01T10:32:49;13.60;29.60
18365;DHT22;9309;52.126;11.616;2023-03-01T10:35:20;13.20;30.60
18365;DHT22;9309;52.126;11.616;2023-03-01T10:38:03;13.70;30.50
18365;DHT22;9309;52.126;11.616;2023-03-01T10:40:31;12.90;30.20
18365;DHT22;9309;52.126;11.616;2023-03-01T10:42:58;13.20;30.90
18365;DHT22;9309;52.126;11.616;2023-03-01T10:45:32;13.80;30.30
18365;DHT22;9309;52.126;11.616;2023-03-01T10:48:04;13.50;30.80
18365;DHT22;9309;52.126;11.616;2023-03-01T10:50:31;13.90;30.50
18365;DHT22;9309;52.126;11.616;2023-03-01T10:53:01;14.20;29.90
18365;DHT22;9309;52.126;11.616;2023-03-01T10:55:33;14.70;28.60
18365;DHT22;9309;52.126;11.616;2023-03-01T10:58:09;13.30;29.40
18365;DHT22;9309;52.126;11.616;2023-03-01T11:00:50;14.40;28.10
18365;DHT22;9309;52.126;11.616;2023-03-01T11:03:22;13.40;29.00
18365;DHT22;9309;52.126;11.616;2023-03-01T11:05:58;12.20;31.70
18365;DHT22;9309;52.126;11.616;2023-03-01T11:08:36;12.30;31.90
18365;DHT22;9309;52.126;11.616;2023-03-01T11:11:21;12.70;31.60
18365;DHT22;9309;52.126;11.616;2023-03-01T11:13:54;13.50;30.10
18365;DHT22;9309;52.126;11.616;2023-03-01T11:16:29;15.70;28.70
18365;DHT22;9309;52.126;11.616;2023-03-01T11:19:00;15.30;27.50
18365;DHT22;9309;52.126;11.616;2023-03-01T11:21:29;15.40;28.30
18365;DHT22;9309;52.126;11.616;2023-03-01T11:24:00;18.50;24.40
18365;DHT22;9309;52.126;11.616;2023-03-01T11:26:28;17.70;24.30
18365;DHT22;9309;52.126;11.616;2023-03-01T11:29:02;18.50;23.90
18365;DHT22;9309;52.126;11.616;2023-03-01T11:31:31;19.30;22.90
18365;DHT22;9309;52.126;11.616;2023-03-01T11:34:02;20.60;21.90
18365;DHT22;9309;52.126;11.616;2023-03-01T11:36:35;19.60;23.00
18365;DHT22;9309;52.126;11.616;2023-03-01T11:39:18;20.60;22.10
18365;DHT22;9309;52.126;11.616;2023-03-01T11:41:49;19.40;22.50
18365;DHT22;9309;52.126;11.616;2023-03-01T11:44:21;18.40;23.40
18365;DHT22;9309;52.126;11.616;2023-03-01T11:47:00;18.40;23.50
18365;DHT22;9309;52.126;11.616;2023-03-01T11:49:49;17.20;24.60
18365;DHT22;9309;52.126;11.616;2023-03-01T11:52:30;19.00;23.40
18365;DHT22;9309;52.126;11.616;2023-03-01T11:55:13;20.80;22.00
18365;DHT22;9309;52.126;11.616;2023-03-01T11:57:56;22.10;20.40
18365;DHT22;9309;52.126;11.616;2023-03-01T12:00:51;20.40;21.80
18365;DHT22;9309;52.126;11.616;2023-03-01T12:03:27;22.00;20.30
18365;DHT22;9309;52.126;11.616;2023-03-01T12:06:12;21.40;20.70
18365;DHT22;9309;52.126;11.616;2023-03-01T12:08:56;23.00;20.30
18365;DHT22;9309;52.126;11.616;2023-03-01T12:11:39;24.90;18.40
18365;DHT22;9309;52.126;11.616;2023-03-01T12:14:25;25.70;18.40
18365;DHT22;9309;52.126;11.616;2023-03-01T12:17:27;25.00;18.60
18365;DHT22;9309;52.126;11.616;2023-03-01T12:20:12;27.40;17.30
18365;DHT22;9309;52.126;11.616;2023-03-01T12:22:54;28.10;16.60
18365;DHT22;9309;52.126;11.616;2023-03-01T12:25:29;28.50;16.20
18365;DHT22;9309;52.126;11.616;2023-03-01T12:28:32;28.90;16.10
18365;DHT22;9309;52.126;11.616;2023-03-01T12:31:25;28.00;16.60
18365;DHT22;9309;52.126;11.616;2023-03-01T12:34:03;28.40;16.10
18365;DHT22;9309;52.126;11.616;2023-03-01T12:36:57;26.50;16.70
18365;DHT22;9309;52.126;11.616;2023-03-01T12:39:38;20.10;20.20
18365;DHT22;9309;52.126;11.616;2023-03-01T12:42:16;20.40;20.50
18365;DHT22;9309;52.126;11.616;2023-03-01T12:45:24;20.80;20.60
18365;DHT22;9309;52.126;11.616;2023-03-01T12:48:02;21.60;20.20
18365;DHT22;9309;52.126;11.616;2023-03-01T12:50:39;22.70;18.90
18365;DHT22;9309;52.126;11.616;2023-03-01T12:53:15;22.70;19.40
18365;DHT22;9309;52.126;11.616;2023-03-01T12:55:43;25.80;17.30
18365;DHT22;9309;52.126;11.616;2023-03-01T12:58:20;27.10;16.50
18365;DHT22;9309;52.126;11.616;2023-03-01T13:01:01;26.70;16.00
18365;DHT22;9309;52.126;11.616;2023-03-01T13:03:36;27.10;15.80
18365;DHT22;9309;52.126;11.616;2023-03-01T13:06:10;27.00;16.30
18365;DHT22;9309;52.126;11.616;2023-03-01T13:08:42;26.00;17.00
18365;DHT22;9309;52.126;11.616;2023-03-01T13:11:16;26.80;16.00
18365;DHT22;9309;52.126;11.616;2023-03-01T13:13:44;24.40;17.70
18365;DHT22;9309;52.126;11.616;2023-03-01T13:16:40;24.70;17.70
18365;DHT22;9309;52.126;11.616;2023-03-01T13:19:13;27.10;16.20
18365;DHT22;9309;52.126;11.616;2023-03-01T13:21:41;28.00;15.40
18365;DHT22;9309;52.126;11.616;2023-03-01T13:24:24;26.00;16.70
18365;DHT22;9309;52.126;11.616;2023-03-01T13:27:09;26.80;16.10
18365;DHT22;9309;52.126;11.616;2023-03-01T13:29:44;26.80;16.10
18365;DHT22;9309;52.126;11.616;2023-03-01T13:32:21;26.40;16.20
18365;DHT22;9309;52.126;11.616;2023-03-01T13:34:51;27.90;15.60
18365;DHT22;9309;52.126;11.616;2023-03-01T13:37:23;27.40;16.10
18365;DHT22;9309;52.126;11.616;2023-03-01T13:39:52;26.40;16.20
18365;DHT22;9309;52.126;11.616;2023-03-01T13:42:40;24.90;17.10
18365;DHT22;9309;52.126;11.616;2023-03-01T13:45:19;25.60;16.90
18365;DHT22;9309;52.126;11.616;2023-03-01T13:47:52;26.70;16.60
18365;DHT22;9309;52.126;11.616;2023-03-01T13:50:22;26.60;16.90
18365;DHT22;9309;52.126;11.616;2023-03-01T13:52:53;27.20;16.20
18365;DHT22;9309;52.126;11.616;2023-03-01T13:55:25;24.70;17.50
18365;DHT22;9309;52.126;11.616;2023-03-01T13:57:55;25.40;17.50
18365;DHT22;9309;52.126;11.616;2023-03-01T14:00:28;24.70;17.30
18365;DHT22;9309;52.126;11.616;2023-03-01T14:03:12;22.90;18.50
18365;DHT22;9309;52.126;11.616;2023-03-01T14:05:39;22.60;18.70
18365;DHT22;9309;52.126;11.616;2023-03-01T14:08:19;22.20;19.50
18365;DHT22;9309;52.126;11.616;2023-03-01T14:10:54;22.50;19.00
18365;DHT22;9309;52.126;11.616;2023-03-01T14:13:36;21.20;19.90
18365;DHT22;9309;52.126;11.616;2023-03-01T14:16:18;18.70;22.10
18365;DHT22;9309;52.126;11.616;2023-03-01T14:18:54;17.20;23.20
18365;DHT22;9309;52.126;11.616;2023-03-01T14:21:24;15.50;24.30
18365;DHT22;9309;52.126;11.616;2023-03-01T14:23:52;13.70;26.10
18365;DHT22;9309;52.126;11.616;2023-03-01T14:26:21;12.40;27.90
18365;DHT22;9309;52.126;11.616;2023-03-01T14:28:49;11.70;29.80
18365;DHT22;9309;52.126;11.616;2023-03-01T14:31:32;11.40;30.70
18365;DHT22;9309;52.126;11.616;2023-03-01T14:34:02;11.10;31.70
18365;DHT22;9309;52.126;11.616;2023-03-01T14:36:30;11.30;32.00
18365;DHT22;9309;52.126;11.616;2023-03-01T14:38:57;11.90;30.40
18365;DHT22;9309;52.126;11.616;2023-03-01T14:41:32;11.30;31.50
18365;DHT22;9309;52.126;11.616;2023-03-01T14:44:02;11.10;31.60
18365;DHT22;9309;52.126;11.616;2023-03-01T14:46:32;10.10;32.40
18365;DHT22;9309;52.126;11.616;2023-03-01T14:49:05;9.70;33.30
18365;DHT22;9309;52.126;11.616;2023-03-01T14:51:36;9.60;33.80
18365;DHT22;9309;52.126;11.616;2023-03-01T14:54:10;9.20;34.90
18365;DHT22;9309;52.126;11.616;2023-03-01T14:56:46;9.20;35.00
18365;DHT22;9309;52.126;11.616;2023-03-01T14:59:12;10.10;33.60
18365;DHT22;9309;52.126;11.616;2023-03-01T15:01:40;10.50;32.90
18365;DHT22;9309;52.126;11.616;2023-03-01T15:04:12;10.30;33.10
18365;DHT22;9309;52.126;11.616;2023-03-01T15:06:40;9.80;33.40
18365;DHT22;9309;52.126;11.616;2023-03-01T15:09:13;9.10;34.50
18365;DHT22;9309;52.126;11.616;2023-03-01T15:11:41;9.00;35.50
18365;DHT22;9309;52.126;11.616;2023-03-01T15:14:26;9.00;35.10
18365;DHT22;9309;52.126;11.616;2023-03-01T15:16:53;9.70;34.60
18365;DHT22;9309;52.126;11.616;2023-03-01T15:19:24;10.30;33.30
18365;DHT22;9309;52.126;11.616;2023-03-01T15:21:52;10.30;33.50
18365;DHT22;9309;52.126;11.616;2023-03-01T15:24:22;9.90;33.70
18365;DHT22;9309;52.126;11.616;2023-03-01T15:26:52;9.30;33.90
18365;DHT22;9309;52.126;11.616;2023-03-01T15:29:22;8.90;34.80
18365;DHT22;9309;52.126;11.616;2023-03-01T15:31:57;8.40;34.50
18365;DHT22;9309;52.126;11.616;2023-03-01T15:34:27;8.30;34.50
18365;DHT22;9309;52.126;11.616;2023-03-01T15:36:56;8.20;34.30
18365;DHT22;9309;52.126;11.616;2023-03-01T15:39:35;8.20;34.60
18365;DHT22;9309;52.126;11.616;2023-03-01T15:42:05;8.40;34.40
18365;DHT22;9309;52.126;11.616;2023-03-01T15:44:33;8.40;34.10
18365;DHT22;9309;52.126;11.616;2023-03-01T15:47:01;8.40;34.00
18365;DHT22;9309;52.126;11.616;2023-03-01T15:49:39;8.40;34.50
18365;DHT22;9309;52.126;11.616;2023-03-01T15:52:12;8.30;34.40
18365;DHT22;9309;52.126;11.616;2023-03-01T15:54:40;8.40;34.20
18365;DHT22;9309;52.126;11.616;2023-03-01T15:57:10;8.30;34.90